| time (UTC) | temp C | wind direction | speed KPH | gust KPH | rain 1hr cm | rain 24hr cm | rain mn cm | humidity % | barometer mb |
| 20260510141518 | 13 | 45 | 14.5 | 25.7 | 0.00 | 0.00 | 0.00 | 62 | 1017.2 |
| 20260510140533 | 14 | 45 | 14.5 | 30.6 | 0.00 | 0.00 | 0.00 | 62 | 1017.3 |
| 20260510135558 | 14 | 45 | 17.7 | 30.6 | 0.00 | 0.00 | 0.00 | 62 | 1017.3 |
| 20260510134517 | 15 | 23 | 16.1 | 29.0 | 0.00 | 0.00 | 0.00 | 60 | 1017.5 |
| 20260510133518 | 15 | 23 | 14.5 | 25.7 | 0.00 | 0.00 | 0.00 | 60 | 1017.4 |
| 20260510132518 | 15 | 23 | 14.5 | 29.0 | 0.00 | 0.00 | 0.00 | 59 | 1017.7 |
| 20260510131520 | 15 | 23 | 14.5 | 27.4 | 0.00 | 0.00 | 0.00 | 59 | 1017.5 |
| 20260510130518 | 16 | 68 | 17.7 | 29.0 | 0.00 | 0.00 | 0.00 | 57 | 1017.7 |
| 20260510125519 | 16 | 23 | 12.9 | 27.4 | 0.00 | 0.00 | 0.00 | 61 | 1017.7 |
| 20260510124521 | 15 | 23 | 16.1 | 27.4 | 0.00 | 0.00 | 0.00 | 61 | 1017.7 |
| 20260510123518 | 15 | 0 | 17.7 | 30.6 | 0.00 | 0.00 | 0.00 | 60 | 1017.7 |
| 20260510122518 | 16 | 45 | 16.1 | 30.6 | 0.00 | 0.00 | 0.00 | 60 | 1017.9 |
| 20260510121538 | 16 | 23 | 17.7 | 32.2 | 0.00 | 0.00 | 0.00 | 60 | 1017.6 |
| 20260510120518 | 15 | 0 | 12.9 | 24.1 | 0.00 | 0.00 | 0.00 | 62 | 1017.7 |
| 20260510115538 | 15 | 23 | 16.1 | 33.8 | 0.00 | 0.00 | 0.00 | 61 | 1017.9 |
| 20260510114518 | 16 | 45 | 12.9 | 24.1 | 0.00 | 0.00 | 0.00 | 60 | 1017.9 |
| 20260510113518 | 16 | 23 | 16.1 | 32.2 | 0.00 | 0.00 | 0.00 | 58 | 1018.3 |
| 20260510112543 | 16 | 45 | 14.5 | 24.1 | 0.00 | 0.00 | 0.00 | 58 | 1018.3 |
| 20260510111520 | 16 | 45 | 16.1 | 30.6 | 0.00 | 0.00 | 0.00 | 59 | 1018.4 |
| 20260510110521 | 17 | 68 | 16.1 | 30.6 | 0.00 | 0.00 | 0.00 | 57 | 1018.4 |
| 20260510105520 | 16 | 45 | 17.7 | 32.2 | 0.00 | 0.00 | 0.00 | 57 | 1018.6 |
| 20260510104542 | 16 | 45 | 16.1 | 29.0 | 0.00 | 0.00 | 0.00 | 60 | 1018.6 |
| 20260510103540 | 16 | 68 | 14.5 | 30.6 | 0.00 | 0.00 | 0.00 | 60 | 1018.6 |
| 20260510102518 | 16 | 68 | 17.7 | 30.6 | 0.00 | 0.00 | 0.00 | 58 | 1018.9 |
| 20260510101517 | 16 | 0 | 14.5 | 27.4 | 0.00 | 0.00 | 0.00 | 60 | 1018.6 |
| 20260510100516 | 16 | 45 | 16.1 | 27.4 | 0.00 | 0.00 | 0.00 | 59 | 1018.6 |
| 20260510095518 | 15 | 68 | 17.7 | 33.8 | 0.00 | 0.00 | 0.00 | 61 | 1018.8 |
| 20260510094538 | 15 | 68 | 19.3 | 35.4 | 0.00 | 0.00 | 0.00 | 62 | 1018.6 |
| 20260510093516 | 13 | 45 | 19.3 | 35.4 | 0.00 | 0.00 | 0.00 | 62 | 1018.7 |
| 20260510092516 | 13 | 45 | 17.7 | 38.6 | 0.00 | 0.00 | 0.00 | 65 | 1018.5 |
| 20260510091522 | 14 | 45 | 17.7 | 32.2 | 0.00 | 0.00 | 0.00 | 62 | 1018.5 |
| 20260510090518 | 14 | 68 | 14.5 | 37.0 | 0.00 | 0.00 | 0.00 | 65 | 1018.6 |
| 20260510085540 | 13 | 68 | 17.7 | 32.2 | 0.00 | 0.00 | 0.00 | 65 | 1018.8 |
| 20260510084520 | 13 | 45 | 11.3 | 27.4 | 0.00 | 0.00 | 0.00 | 66 | 1019.1 |
| 20260510083518 | 13 | 45 | 12.9 | 25.7 | 0.00 | 0.00 | 0.00 | 66 | 1019.0 |
| 20260510082519 | 13 | 68 | 17.7 | 30.6 | 0.00 | 0.00 | 0.00 | 68 | 1019.0 |
| 20260510081523 | 12 | 68 | 12.9 | 30.6 | 0.00 | 0.00 | 0.00 | 71 | 1018.8 |
| 20260510080540 | 12 | 45 | 14.5 | 25.7 | 0.00 | 0.00 | 0.00 | 70 | 1018.8 |
| 20260510075521 | 11 | 45 | 14.5 | 29.0 | 0.00 | 0.00 | 0.00 | 71 | 1019.0 |
| 20260510074555 | 11 | 45 | 17.7 | 32.2 | 0.00 | 0.00 | 0.00 | 72 | 1018.9 |
| 20260510073519 | 11 | 23 | 11.3 | 24.1 | 0.00 | 0.00 | 0.00 | 72 | 1018.8 |
| 20260510072523 | 11 | 68 | 12.9 | 20.9 | 0.00 | 0.00 | 0.00 | 73 | 1018.8 |
| 20260510071525 | 11 | 68 | 17.7 | 33.8 | 0.00 | 0.00 | 0.00 | 73 | 1018.6 |
| 20260510070520 | 11 | 45 | 16.1 | 30.6 | 0.00 | 0.00 | 0.00 | 74 | 1018.5 |
| 20260510065524 | 10 | 23 | 12.9 | 25.7 | 0.00 | 0.00 | 0.00 | 75 | 1018.6 |
| 20260510064520 | 10 | 68 | 11.3 | 24.1 | 0.00 | 0.00 | 0.00 | 76 | 1018.4 |
| 20260510063520 | 10 | 45 | 12.9 | 25.7 | 0.00 | 0.00 | 0.00 | 77 | 1018.5 |
| 20260510062520 | 10 | 45 | 11.3 | 27.4 | 0.00 | 0.00 | 0.00 | 77 | 1018.2 |
| 20260510061520 | 10 | 45 | 11.3 | 24.1 | 0.00 | 0.00 | 0.00 | 78 | 1018.2 |
| 20260510060519 | 9 | 45 | 9.7 | 22.5 | 0.00 | 0.00 | 0.00 | 79 | 1018.3 |
| 20260510055520 | 9 | 23 | 8.0 | 16.1 | 0.00 | 0.00 | 0.00 | 79 | 1018.3 |
| 20260510054520 | 9 | 68 | 4.8 | 9.7 | 0.00 | 0.00 | 0.00 | 79 | 1018.3 |
| 20260510053520 | 9 | 68 | 6.4 | 17.7 | 0.00 | 0.00 | 0.00 | 79 | 1018.4 |
| 20260510052519 | 8 | 45 | 6.4 | 17.7 | 0.00 | 0.00 | 0.00 | 80 | 1018.4 |
| 20260510051530 | 8 | 45 | 6.4 | 17.7 | 0.00 | 0.00 | 0.00 | 80 | 1018.3 |
| 20260510050519 | 8 | 23 | 8.0 | 17.7 | 0.00 | 0.00 | 0.00 | 80 | 1018.4 |
| 20260510045520 | 8 | 68 | 8.0 | 19.3 | 0.00 | 0.00 | 0.00 | 80 | 1018.3 |
| 20260510044519 | 8 | 45 | 8.0 | 19.3 | 0.00 | 0.00 | 0.00 | 80 | 1018.3 |
| 20260510043540 | 8 | 45 | 8.0 | 20.9 | 0.00 | 0.00 | 0.00 | 80 | 1018.2 |
| 20260510042524 | 8 | 45 | 12.9 | 20.9 | 0.00 | 0.00 | 0.00 | 79 | 1018.1 |
| 20260510041519 | 8 | 45 | 8.0 | 20.9 | 0.00 | 0.00 | 0.00 | 78 | 1018.3 |
| 20260510040523 | 8 | 45 | 8.0 | 16.1 | 0.00 | 0.00 | 0.00 | 77 | 1018.4 |
| 20260510035518 | 9 | 45 | 6.4 | 17.7 | 0.00 | 0.00 | 0.00 | 76 | 1018.3 |
| 20260510034524 | 9 | 45 | 9.7 | 20.9 | 0.00 | 0.00 | 0.00 | 75 | 1018.2 |
| 20260510033519 | 9 | 45 | 9.7 | 24.1 | 0.00 | 0.00 | 0.00 | 75 | 1018.4 |
| 20260510032519 | 10 | 45 | 9.7 | 19.3 | 0.00 | 0.00 | 0.00 | 74 | 1018.4 |
| 20260510031519 | 10 | 45 | 8.0 | 16.1 | 0.00 | 0.00 | 0.00 | 73 | 1018.4 |
| 20260510030521 | 10 | 45 | 6.4 | 14.5 | 0.00 | 0.00 | 0.00 | 73 | 1018.3 |
| 20260510025524 | 10 | 45 | 6.4 | 14.5 | 0.00 | 0.00 | 0.00 | 74 | 1018.4 |
| 20260510024519 | 10 | 23 | 4.8 | 12.9 | 0.00 | 0.00 | 0.00 | 74 | 1018.5 |
| 20260510023519 | 10 | 45 | 8.0 | 14.5 | 0.00 | 0.00 | 0.00 | 73 | 1018.5 |
| 20260510022539 | 10 | 45 | 6.4 | 14.5 | 0.00 | 0.00 | 0.00 | 72 | 1018.7 |
| 20260510021519 | 10 | 23 | 6.4 | 16.1 | 0.00 | 0.00 | 0.00 | 71 | 1018.5 |
| 20260510020519 | 10 | 23 | 6.4 | 14.5 | 0.00 | 0.00 | 0.00 | 71 | 1018.4 |
| 20260510015520 | 11 | 45 | 8.0 | 19.3 | 0.00 | 0.00 | 0.00 | 71 | 1018.1 |
| 20260510014519 | 11 | 23 | 8.0 | 16.1 | 0.00 | 0.00 | 0.00 | 70 | 1018.2 |
| 20260510013520 | 11 | 45 | 6.4 | 16.1 | 0.00 | 0.00 | 0.00 | 70 | 1018.3 |
| 20260510012519 | 11 | 68 | 6.4 | 16.1 | 0.00 | 0.00 | 0.00 | 71 | 1018.2 |
| 20260510011519 | 11 | 45 | 9.7 | 20.9 | 0.00 | 0.00 | 0.00 | 72 | 1018.1 |
| 20260510010539 | 11 | 45 | 8.0 | 17.7 | 0.00 | 0.00 | 0.00 | 74 | 1018.0 |
| 20260510005539 | 11 | 68 | 9.7 | 22.5 | 0.00 | 0.00 | 0.00 | 76 | 1018.1 |
| 20260510004520 | 12 | 45 | 6.4 | 16.1 | 0.00 | 0.00 | 0.00 | 77 | 1018.1 |
| 20260510003545 | 12 | 45 | 8.0 | 17.7 | 0.00 | 0.00 | 0.00 | 78 | 1018.2 |
| 20260510002524 | 12 | 45 | 6.4 | 11.3 | 0.00 | 0.00 | 0.00 | 78 | 1018.3 |
| 20260510001519 | 12 | 68 | 6.4 | 14.5 | 0.00 | 0.00 | 0.00 | 78 | 1018.4 |
| 20260510000519 | 12 | 45 | 6.4 | 14.5 | 0.00 | 0.00 | 0.00 | 78 | 1018.4 |
| 20260509235519 | 12 | 68 | 6.4 | 17.7 | 0.00 | 0.00 | 0.00 | 77 | 1018.1 |
| 20260509234520 | 12 | 68 | 4.8 | 14.5 | 0.00 | 0.00 | 0.00 | 77 | 1018.1 |
| 20260509233521 | 13 | 23 | 6.4 | 12.9 | 0.00 | 0.00 | 0.00 | 76 | 1018.1 |
| 20260509232519 | 13 | 68 | 6.4 | 14.5 | 0.00 | 0.00 | 0.00 | 76 | 1018.2 |
| 20260509231619 | 13 | 68 | 6.4 | 16.1 | 0.00 | 0.00 | 0.00 | 75 | 1018.1 |
| 20260509230520 | 13 | 45 | 4.8 | 16.1 | 0.00 | 0.00 | 0.00 | 75 | 1018.0 |
| 20260509225520 | 13 | 23 | 6.4 | 16.1 | 0.00 | 0.00 | 0.00 | 75 | 1018.0 |
| 20260509224520 | 13 | 23 | 6.4 | 11.3 | 0.00 | 0.00 | 0.00 | 74 | 1017.8 |
| 20260509223520 | 13 | 23 | 8.0 | 19.3 | 0.00 | 0.00 | 0.00 | 74 | 1017.8 |
| 20260509222519 | 13 | 23 | 9.7 | 19.3 | 0.00 | 0.00 | 0.00 | 74 | 1017.9 |
| 20260509221519 | 13 | 23 | 11.3 | 22.5 | 0.00 | 0.00 | 0.00 | 75 | 1017.7 |
| 20260509220550 | 13 | 45 | 6.4 | 20.9 | 0.00 | 0.00 | 0.00 | 75 | 1017.8 |
| 20260509215540 | 13 | 23 | 8.0 | 17.7 | 0.00 | 0.00 | 0.00 | 74 | 1017.6 |
| 20260509214519 | 14 | 23 | 12.9 | 27.4 | 0.00 | 0.00 | 0.00 | 74 | 1017.7 |
| 20260509213542 | 14 | 23 | 11.3 | 24.1 | 0.00 | 0.00 | 0.00 | 73 | 1017.8 |
| 20260509212522 | 14 | 23 | 14.5 | 27.4 | 0.00 | 0.00 | 0.00 | 73 | 1017.6 |
| 20260509211542 | 15 | 23 | 11.3 | 24.1 | 0.00 | 0.00 | 0.00 | 72 | 1017.6 |
| 20260509210519 | 15 | 23 | 11.3 | 24.1 | 0.00 | 0.00 | 0.00 | 72 | 1017.4 |
| 20260509205519 | 15 | 23 | 14.5 | 25.7 | 0.00 | 0.00 | 0.00 | 70 | 1017.2 |
| 20260509204519 | 15 | 23 | 14.5 | 27.4 | 0.00 | 0.00 | 0.00 | 69 | 1017.2 |
| 20260509203539 | 16 | 23 | 12.9 | 24.1 | 0.00 | 0.00 | 0.00 | 65 | 1017.1 |
| 20260509202519 | 16 | 0 | 9.7 | 20.9 | 0.00 | 0.00 | 0.00 | 58 | 1017.1 |
| 20260509201539 | 16 | 0 | 11.3 | 19.3 | 0.00 | 0.00 | 0.00 | 58 | 1017.2 |
| 20260509200519 | 16 | 0 | 8.0 | 17.7 | 0.00 | 0.00 | 0.00 | 58 | 1017.0 |
| 20260509195519 | 16 | 0 | 6.4 | 14.5 | 0.00 | 0.00 | 0.00 | 58 | 1016.7 |
| 20260509194519 | 17 | 0 | 4.8 | 8.0 | 0.00 | 0.00 | 0.00 | 57 | 1016.7 |
| 20260509193518 | 17 | 0 | 8.0 | 14.5 | 0.00 | 0.00 | 0.00 | 56 | 1016.7 |
| 20260509192519 | 17 | 0 | 9.7 | 16.1 | 0.00 | 0.00 | 0.00 | 56 | 1016.7 |
| 20260509191519 | 17 | 0 | 8.0 | 14.5 | 0.00 | 0.00 | 0.00 | 56 | 1016.7 |
| 20260509190519 | 18 | 0 | 8.0 | 14.5 | 0.00 | 0.00 | 0.00 | 55 | 1016.7 |
| 20260509185548 | 18 | 0 | 11.3 | 19.3 | 0.00 | 0.00 | 0.00 | 54 | 1016.6 |
| 20260509184518 | 18 | 0 | 9.7 | 17.7 | 0.00 | 0.00 | 0.00 | 53 | 1016.7 |
| 20260509183519 | 18 | 45 | 6.4 | 14.5 | 0.00 | 0.00 | 0.00 | 50 | 1016.7 |
| 20260509182519 | 19 | 45 | 9.7 | 16.1 | 0.00 | 0.00 | 0.00 | 50 | 1016.6 |
| 20260509181518 | 19 | 23 | 8.0 | 20.9 | 0.00 | 0.00 | 0.00 | 49 | 1016.3 |
| 20260509180519 | 20 | 23 | 9.7 | 17.7 | 0.00 | 0.00 | 0.00 | 47 | 1016.5 |
| 20260509175518 | 20 | 0 | 8.0 | 19.3 | 0.00 | 0.00 | 0.00 | 48 | 1016.4 |
| 20260509174519 | 20 | 23 | 8.0 | 16.1 | 0.00 | 0.00 | 0.00 | 49 | 1016.1 |
| 20260509173521 | 20 | 68 | 11.3 | 20.9 | 0.00 | 0.00 | 0.00 | 48 | 1016.2 |
| 20260509172518 | 20 | 23 | 9.7 | 20.9 | 0.00 | 0.00 | 0.00 | 47 | 1016.1 |
| 20260509171519 | 20 | 45 | 8.0 | 19.3 | 0.00 | 0.00 | 0.00 | 47 | 1016.2 |
| 20260509170519 | 20 | 0 | 12.9 | 25.7 | 0.00 | 0.00 | 0.00 | 47 | 1016.6 |
| 20260509165519 | 20 | 0 | 11.3 | 17.7 | 0.00 | 0.00 | 0.00 | 47 | 1016.5 |
| 20260509165132 | 20 | 45 | 9.7 | 19.3 | 0.00 | 0.00 | 0.00 | 47 | 1016.4 |
| 20260509164519 | 21 | 23 | 9.7 | 24.1 | 0.00 | 0.00 | 0.00 | 48 | 1016.4 |
| 20260509163518 | 21 | 45 | 8.0 | 16.1 | 0.00 | 0.00 | 0.00 | 48 | 1016.5 |
| 20260509162516 | 20 | 0 | 8.0 | 22.5 | 0.00 | 0.00 | 0.00 | 47 | 1016.5 |
| 20260509161518 | 20 | 45 | 8.0 | 17.7 | 0.00 | 0.00 | 0.00 | 48 | 1016.6 |
| 20260509160518 | 20 | 0 | 9.7 | 17.7 | 0.00 | 0.00 | 0.00 | 48 | 1016.6 |
| 20260509155518 | 20 | 23 | 6.4 | 14.5 | 0.00 | 0.00 | 0.00 | 50 | 1016.7 |
| 20260509154518 | 20 | 45 | 11.3 | 22.5 | 0.00 | 0.00 | 0.00 | 47 | 1016.8 |
| 20260509153519 | 20 | 23 | 8.0 | 17.7 | 0.00 | 0.00 | 0.00 | 51 | 1017.0 |
| 20260509152517 | 20 | 68 | 6.4 | 16.1 | 0.00 | 0.00 | 0.00 | 51 | 1017.0 |
| 20260509151518 | 20 | 68 | 8.0 | 17.7 | 0.00 | 0.00 | 0.00 | 52 | 1016.9 |
| 20260509150544 | 20 | 68 | 6.4 | 14.5 | 0.00 | 0.00 | 0.00 | 50 | 1017.0 |
| 20260509145520 | 20 | 68 | 9.7 | 19.3 | 0.00 | 0.00 | 0.00 | 50 | 1017.4 |
| 20260509144523 | 21 | 338 | 8.0 | 19.3 | 0.00 | 0.00 | 0.00 | 45 | 1017.3 |
| 20260509143538 | 22 | 68 | 11.3 | 17.7 | 0.00 | 0.00 | 0.00 | 44 | 1017.5 |
| 20260509142523 | 23 | 45 | 11.3 | 22.5 | 0.00 | 0.00 | 0.00 | 45 | 1017.5 |